Time;durP1;ratioP1;P1;durP2;ratioP2;P2;SDS_P1;SDS_P2;PMS_P1;PMS_P2;Temp;Humidity;BMP_temperature;BMP_pressure;BME280_temperature;BME280_humidity;BME280_pressure;Samples;Min_cycle;Max_cycle;Signal;HPM_P1;HPM_P2
2022/07/02 00:00:58;;;;;;;;;;;;;;;;;;2208693;67;1249;-52
2022/07/02 00:03:36;;;;;;;;;;;;;;;;;;2208820;59;1993;-52
2022/07/02 00:06:15;;;;;;;;;;;;;;;;;;2209037;67;1199;-53
2022/07/02 00:08:48;;;;;;;;;;;;;;;;;;2208498;67;1131;-53
2022/07/02 00:11:22;;;;;;;;;;;;;;;;;;2209524;59;1351;-52
2022/07/02 00:13:55;;;;;;;;;;;;;;;;;;2209770;67;1213;-52
2022/07/02 00:16:29;;;;;;;;;;;;;;;;;;2209706;67;1162;-52
2022/07/02 00:19:05;;;;;;;;;;;;;;;;;;2209739;67;1144;-53
2022/07/02 00:21:39;;;;;;;;;;;;;;;;;;2209516;67;1128;-52
2022/07/02 00:24:13;;;;;;;;;;;;;;;;;;2209285;59;1935;-52
2022/07/02 00:26:51;;;;;;;;;;;;;;;;;;2209635;59;1264;-53
2022/07/02 00:29:29;;;;;;;;;;;;;;;;;;2209752;67;1191;-52
2022/07/02 00:32:02;;;;;;;;;;;;;;;;;;2208960;59;2031;-52
2022/07/02 00:34:38;;;;;;;;;;;;;;;;;;2209369;59;1044;-52
2022/07/02 00:37:13;;;;;;;;;;;;;;;;;;2209256;67;1260;-52
2022/07/02 00:39:46;;;;;;;;;;;;;;;;;;2208849;67;1139;-52
2022/07/02 00:42:20;;;;;;;;;;;;;;;;;;2209506;67;2714;-52
2022/07/02 00:44:54;;;;;;;;;;;;;;;;;;2209333;67;1988;-52
2022/07/02 00:47:28;;;;;;;;;;;;;;;;;;2208963;67;1302;-53
2022/07/02 00:50:04;;;;;;;;;;;;;;;;;;2208633;59;1151;-52
2022/07/02 00:52:37;;;;;;;;;;;;;;;;;;2209151;67;1112;-53
2022/07/02 00:55:11;;;;;;;;;;;;;;;;;;2209144;67;1142;-52
2022/07/02 00:57:45;;;;;;;;;;;;;;;;;;2209726;67;1298;-52
2022/07/02 01:00:19;;;;;;;;;;;;;;;;;;2208762;67;1284;-52
2022/07/02 01:02:53;;;;;;;;;;;;;;;;;;2209157;67;1301;-52
2022/07/02 01:05:29;;;;;;;;;;;;;;;;;;2209160;67;1920;-52
2022/07/02 01:10:52;;;;;;;;;;;;;;;;;;2209065;59;1308;-52
2022/07/02 01:13:26;;;;;;;;;;;;;;;;;;2209364;67;1776;-52
2022/07/02 01:15:59;;;;;;;;;;;;;;;;;;2209510;67;1215;-53
2022/07/02 01:18:34;;;;;;;;;;;;;;;;;;2208462;67;1613;-52
2022/07/02 01:21:10;;;;;;;;;;;;;;;;;;2209661;59;1153;-53
2022/07/02 01:23:46;;;;;;;;;;;;;;;;;;2209201;67;1988;-52
2022/07/02 01:26:19;;;;;;;;;;;;;;;;;;2209278;59;1307;-52
2022/07/02 01:28:52;;;;;;;;;;;;;;;;;;2209224;67;1264;-52
2022/07/02 01:31:25;;;;;;;;;;;;;;;;;;2209069;59;2104;-52
2022/07/02 01:33:58;;;;;;;;;;;;;;;;;;2209152;67;1214;-52
2022/07/02 01:36:32;;;;;;;;;;;;;;;;;;2209241;67;1238;-52
2022/07/02 01:39:07;;;;;;;;;;;;;;;;;;2208768;67;1166;-52
2022/07/02 01:41:43;;;;;;;;;;;;;;;;;;2209132;59;2044;-52
2022/07/02 01:44:17;;;;;;;;;;;;;;;;;;2209483;67;1980;-52
2022/07/02 01:46:50;;;;;;;;;;;;;;;;;;2209568;67;1231;-52
2022/07/02 01:49:23;;;;;;;;;;;;;;;;;;2208786;59;1227;-52
2022/07/02 01:51:56;;;;;;;;;;;;;;;;;;2209078;67;1299;-52
2022/07/02 01:54:32;;;;;;;;;;;;;;;;;;2208994;67;1145;-53
2022/07/02 01:57:06;;;;;;;;;;;;;;;;;;2209097;67;1183;-52
2022/07/02 01:59:39;;;;;;;;;;;;;;;;;;2209266;67;1079;-52
2022/07/02 02:02:12;;;;;;;;;;;;;;;;;;2209593;67;1200;-52
2022/07/02 02:04:45;;;;;;;;;;;;;;;;;;2208876;67;1921;-52
2022/07/02 02:07:18;;;;;;;;;;;;;;;;;;2208823;67;1231;-52
2022/07/02 02:09:54;;;;;;;;;;;;;;;;;;2209300;67;1151;-52
2022/07/02 02:12:27;;;;;;;;;;;;;;;;;;2210035;59;1307;-52
2022/07/02 02:15:00;;;;;;;;;;;;;;;;;;2209659;67;1215;-52
2022/07/02 02:17:33;;;;;;;;;;;;;;;;;;2209006;67;1335;-52
2022/07/02 02:20:07;;;;;;;;;;;;;;;;;;2208850;67;1266;-52
2022/07/02 02:22:40;;;;;;;;;;;;;;;;;;2209262;67;1122;-53
2022/07/02 02:25:16;;;;;;;;;;;;;;;;;;2209321;59;1935;-53
2022/07/02 02:27:49;;;;;;;;;;;;;;;;;;2209436;67;1263;-53
2022/07/02 02:30:22;;;;;;;;;;;;;;;;;;2208554;59;2099;-52
2022/07/02 02:32:55;;;;;;;;;;;;;;;;;;2209701;67;1306;-55
2022/07/02 02:35:28;;;;;;;;;;;;;;;;;;2211177;59;1207;-52
2022/07/02 02:38:01;;;;;;;;;;;;;;;;;;2211296;67;1159;-53
2022/07/02 02:40:37;;;;;;;;;;;;;;;;;;2210446;59;1968;-52
2022/07/02 02:43:11;;;;;;;;;;;;;;;;;;2209502;59;1642;-52
2022/07/02 02:45:44;;;;;;;;;;;;;;;;;;2209138;59;1963;-52
2022/07/02 02:48:17;;;;;;;;;;;;;;;;;;2209030;59;1291;-52
2022/07/02 02:50:50;;;;;;;;;;;;;;;;;;2208895;67;1147;-52
2022/07/02 02:53:23;;;;;;;;;;;;;;;;;;2208866;67;1294;-52
2022/07/02 02:55:59;;;;;;;;;;;;;;;;;;2209414;67;1275;-54
2022/07/02 02:58:32;;;;;;;;;;;;;;;;;;2208712;67;1109;-52
2022/07/02 03:01:06;;;;;;;;;;;;;;;;;;2209305;67;1260;-53
2022/07/02 03:03:39;;;;;;;;;;;;;;;;;;2209063;59;2443;-52
2022/07/02 03:06:12;;;;;;;;;;;;;;;;;;2208355;59;2011;-53
2022/07/02 03:08:45;;;;;;;;;;;;;;;;;;2208985;67;1205;-52
2022/07/02 03:11:21;;;;;;;;;;;;;;;;;;2209836;59;1236;-52
2022/07/02 03:13:54;;;;;;;;;;;;;;;;;;2209088;67;1286;-52
2022/07/02 03:16:28;;;;;;;;;;;;;;;;;;2208895;67;1181;-53
2022/07/02 03:19:01;;;;;;;;;;;;;;;;;;2209420;67;1278;-52
2022/07/02 03:21:34;;;;;;;;;;;;;;;;;;2208843;59;1329;-53
2022/07/02 03:24:08;;;;;;;;;;;;;;;;;;2209116;67;1274;-52
2022/07/02 03:26:43;;;;;;;;;;;;;;;;;;2208799;67;1939;-52
2022/07/02 03:29:17;;;;;;;;;;;;;;;;;;2208909;67;1202;-53
2022/07/02 03:31:50;;;;;;;;;;;;;;;;;;2208676;59;2012;-52
2022/07/02 03:34:23;;;;;;;;;;;;;;;;;;2211141;67;1215;-52
2022/07/02 03:36:56;;;;;;;;;;;;;;;;;;2211234;59;1366;-52
2022/07/02 03:39:29;;;;;;;;;;;;;;;;;;2208691;67;1104;-53
2022/07/02 03:42:06;;;;;;;;;;;;;;;;;;2210148;59;2043;-52
2022/07/02 03:44:40;;;;;;;;;;;;;;;;;;2209881;67;1931;-52
2022/07/02 03:47:13;;;;;;;;;;;;;;;;;;2209801;67;1255;-52
2022/07/02 03:49:46;;;;;;;;;;;;;;;;;;2209335;59;1203;-52
2022/07/02 03:52:19;;;;;;;;;;;;;;;;;;2208953;67;1203;-52
2022/07/02 03:54:52;;;;;;;;;;;;;;;;;;2209793;67;1108;-52
2022/07/02 03:57:28;;;;;;;;;;;;;;;;;;2210074;67;1228;-52
2022/07/02 04:00:01;;;;;;;;;;;;;;;;;;2209578;67;1227;-52
2022/07/02 04:02:35;;;;;;;;;;;;;;;;;;2209144;67;1130;-52
2022/07/02 04:05:09;;;;;;;;;;;;;;;;;;2209112;67;1932;-52
2022/07/02 04:07:42;;;;;;;;;;;;;;;;;;2209765;67;1186;-56
2022/07/02 04:10:15;;;;;;;;;;;;;;;;;;2209480;67;1260;-52
2022/07/02 04:12:51;;;;;;;;;;;;;;;;;;2209570;59;1495;-52
2022/07/02 04:15:24;;;;;;;;;;;;;;;;;;2209604;67;1151;-52
2022/07/02 04:17:57;;;;;;;;;;;;;;;;;;2210109;67;1259;-52
2022/07/02 04:20:32;;;;;;;;;;;;;;;;;;2210055;67;1088;-52
2022/07/02 04:23:05;;;;;;;;;;;;;;;;;;2209725;67;1156;-52
2022/07/02 04:25:38;;;;;;;;;;;;;;;;;;2210330;67;1963;-52
2022/07/02 04:28:14;;;;;;;;;;;;;;;;;;2210030;67;1230;-52
2022/07/02 04:30:47;;;;;;;;;;;;;;;;;;2210181;59;1917;-52
2022/07/02 04:33:21;;;;;;;;;;;;;;;;;;2209960;67;1255;-52
2022/07/02 04:35:54;;;;;;;;;;;;;;;;;;2209836;67;1200;-52
2022/07/02 04:38:27;;;;;;;;;;;;;;;;;;2210063;67;1341;-52
2022/07/02 04:41:00;;;;;;;;;;;;;;;;;;2209899;59;2015;-52
2022/07/02 04:43:36;;;;;;;;;;;;;;;;;;2210268;67;1075;-52
2022/07/02 04:46:09;;;;;;;;;;;;;;;;;;2209830;67;1985;-52
2022/07/02 04:59:25;;;;;;;;;;;;;;;;;;2208706;59;1444;-65
2022/07/02 05:01:58;;;;;;;;;;;;;;;;;;2210244;67;1177;-65
2022/07/02 05:04:31;;;;;;;;;;;;;;;;;;2209183;59;1145;-65
2022/07/02 05:07:05;;;;;;;;;;;;;;;;;;2208798;67;1972;-65
2022/07/02 05:09:38;;;;;;;;;;;;;;;;;;2205806;67;1106;-64
2022/07/02 05:12:12;;;;;;;;;;;;;;;;;;2205883;59;1391;-64
2022/07/02 05:14:48;;;;;;;;;;;;;;;;;;2205642;67;1024;-63
2022/07/02 05:17:21;;;;;;;;;;;;;;;;;;2205786;67;1200;-64
2022/07/02 05:19:54;;;;;;;;;;;;;;;;;;2205552;67;1231;-65
2022/07/02 05:22:27;;;;;;;;;;;;;;;;;;2205497;59;1268;-65
2022/07/02 05:25:01;;;;;;;;;;;;;;;;;;2206046;59;2306;-65
2022/07/02 05:27:34;;;;;;;;;;;;;;;;;;2204584;59;1429;-65
2022/07/02 05:30:10;;;;;;;;;;;;;;;;;;2206288;59;1203;-65
2022/07/02 05:32:44;;;;;;;;;;;;;;;;;;2205228;67;1007;-65
2022/07/02 05:35:17;;;;;;;;;;;;;;;;;;2205204;59;1264;-65
2022/07/02 05:37:50;;;;;;;;;;;;;;;;;;2205551;67;1211;-65
2022/07/02 05:40:23;;;;;;;;;;;;;;;;;;2205879;67;1224;-64
2022/07/02 05:42:56;;;;;;;;;;;;;;;;;;2205588;67;1872;-65
2022/07/02 05:45:32;;;;;;;;;;;;;;;;;;2204903;67;2469;-65
2022/07/02 05:48:06;;;;;;;;;;;;;;;;;;2205668;59;1241;-65
2022/07/02 05:50:39;;;;;;;;;;;;;;;;;;2205146;67;1149;-65
2022/07/02 05:53:13;;;;;;;;;;;;;;;;;;2205654;60;1165;-65
2022/07/02 05:55:46;;;;;;;;;;;;;;;;;;2205512;67;1154;-65
2022/07/02 05:58:20;;;;;;;;;;;;;;;;;;2205668;59;1258;-65
2022/07/02 06:00:56;;;;;;;;;;;;;;;;;;2205222;59;1251;-63
2022/07/02 06:03:29;;;;;;;;;;;;;;;;;;2205229;67;1203;-64
2022/07/02 06:08:51;;;;;;;;;;;;;;;;;;2205622;59;1566;-63
2022/07/02 06:11:24;;;;;;;;;;;;;;;;;;2204921;59;1387;-64
2022/07/02 06:13:57;;;;;;;;;;;;;;;;;;2205604;67;1092;-66
2022/07/02 06:16:33;;;;;;;;;;;;;;;;;;2204795;59;1960;-62
2022/07/02 06:19:07;;;;;;;;;;;;;;;;;;2205327;67;1290;-65
2022/07/02 06:21:40;;;;;;;;;;;;;;;;;;2204975;59;1196;-65
2022/07/02 06:24:13;;;;;;;;;;;;;;;;;;2205755;59;1690;-65
2022/07/02 06:26:46;;;;;;;;;;;;;;;;;;2205393;59;2027;-65
2022/07/02 06:29:19;;;;;;;;;;;;;;;;;;2205722;59;1765;-65
2022/07/02 06:31:55;;;;;;;;;;;;;;;;;;2204075;59;2105;-65
2022/07/02 06:34:29;;;;;;;;;;;;;;;;;;2204624;67;1223;-65
2022/07/02 06:37:02;;;;;;;;;;;;;;;;;;2205240;59;1756;-65
2022/07/02 06:39:35;;;;;;;;;;;;;;;;;;2205105;59;2162;-65
2022/07/02 06:42:26;;;;;;;;;;;;;;;;;;2205440;59;1992;-65
2022/07/02 06:45:00;;;;;;;;;;;;;;;;;;2205049;67;1278;-65
2022/07/02 06:47:41;;;;;;;;;;;;;;;;;;2204697;67;1930;-64
2022/07/02 06:50:16;;;;;;;;;;;;;;;;;;2204350;59;1611;-65
2022/07/02 06:52:49;;;;;;;;;;;;;;;;;;2204816;59;2267;-64
2022/07/02 06:55:23;;;;;;;;;;;;;;;;;;2205286;59;1579;-64
2022/07/02 06:57:56;;;;;;;;;;;;;;;;;;2205137;59;1612;-65
2022/07/02 07:00:29;;;;;;;;;;;;;;;;;;2205250;59;1136;-65
2022/07/02 07:03:05;;;;;;;;;;;;;;;;;;2204891;67;1223;-65
2022/07/02 07:05:38;;;;;;;;;;;;;;;;;;2205409;59;1937;-64
2022/07/02 07:08:12;;;;;;;;;;;;;;;;;;2205446;67;1260;-66
2022/07/02 07:10:45;;;;;;;;;;;;;;;;;;2205246;67;1346;-65
2022/07/02 07:13:18;;;;;;;;;;;;;;;;;;2205704;59;1324;-64
2022/07/02 07:15:51;;;;;;;;;;;;;;;;;;2206016;67;1221;-65
2022/07/02 07:18:27;;;;;;;;;;;;;;;;;;2205791;67;1213;-65
2022/07/02 07:21:00;;;;;;;;;;;;;;;;;;2205774;59;1805;-66
2022/07/02 07:23:33;;;;;;;;;;;;;;;;;;2205829;67;1112;-65
2022/07/02 07:26:06;;;;;;;;;;;;;;;;;;2205440;59;1968;-66
2022/07/02 07:28:39;;;;;;;;;;;;;;;;;;2205645;67;1227;-64
2022/07/02 07:31:12;;;;;;;;;;;;;;;;;;2205487;67;1987;-65
2022/07/02 07:33:48;;;;;;;;;;;;;;;;;;2205317;67;1065;-65
2022/07/02 07:36:23;;;;;;;;;;;;;;;;;;2206007;67;1204;-65
2022/07/02 07:38:56;;;;;;;;;;;;;;;;;;2205502;59;1769;-65
2022/07/02 07:41:29;;;;;;;;;;;;;;;;;;2205703;59;1833;-64
2022/07/02 07:44:03;;;;;;;;;;;;;;;;;;2205740;67;1182;-65
2022/07/02 07:46:36;;;;;;;;;;;;;;;;;;2205506;67;1934;-63
2022/07/02 07:49:12;;;;;;;;;;;;;;;;;;2205555;60;1321;-65
2022/07/02 07:51:45;;;;;;;;;;;;;;;;;;2205143;67;1037;-65
2022/07/02 07:54:18;;;;;;;;;;;;;;;;;;2205950;67;1231;-65
2022/07/02 07:56:51;;;;;;;;;;;;;;;;;;2205618;59;1698;-65
2022/07/02 07:59:24;;;;;;;;;;;;;;;;;;2205432;67;1157;-65
2022/07/02 08:01:57;;;;;;;;;;;;;;;;;;2205230;67;1113;-65
2022/07/02 08:04:33;;;;;;;;;;;;;;;;;;2204272;59;1107;-64
2022/07/02 08:07:07;;;;;;;;;;;;;;;;;;2205897;67;1933;-64
2022/07/02 08:09:40;;;;;;;;;;;;;;;;;;2205853;59;1814;-65
2022/07/02 08:12:13;;;;;;;;;;;;;;;;;;2205664;59;1377;-65
2022/07/02 08:14:46;;;;;;;;;;;;;;;;;;2205139;67;1047;-64
2022/07/02 08:17:19;;;;;;;;;;;;;;;;;;2202084;67;1283;-65
2022/07/02 08:19:55;;;;;;;;;;;;;;;;;;2205190;67;1263;-64
2022/07/02 08:22:28;;;;;;;;;;;;;;;;;;2205812;67;1232;-65
2022/07/02 08:25:02;;;;;;;;;;;;;;;;;;2206177;67;1204;-66
2022/07/02 08:27:35;;;;;;;;;;;;;;;;;;2205388;59;1995;-64
2022/07/02 08:30:09;;;;;;;;;;;;;;;;;;2206352;59;2016;-65
2022/07/02 08:32:43;;;;;;;;;;;;;;;;;;2204997;59;1840;-63
2022/07/02 08:35:19;;;;;;;;;;;;;;;;;;2205876;67;1317;-65
2022/07/02 08:37:52;;;;;;;;;;;;;;;;;;2205240;67;1279;-64
2022/07/02 08:40:27;;;;;;;;;;;;;;;;;;2205496;67;1228;-65
2022/07/02 08:43:01;;;;;;;;;;;;;;;;;;2205548;59;2297;-65
2022/07/02 08:45:34;;;;;;;;;;;;;;;;;;2205405;67;1232;-66
2022/07/02 08:48:08;;;;;;;;;;;;;;;;;;2206076;67;1979;-65
2022/07/02 08:50:44;;;;;;;;;;;;;;;;;;2205350;67;1102;-65
2022/07/02 08:53:19;;;;;;;;;;;;;;;;;;2205780;59;1017;-65
2022/07/02 08:55:53;;;;;;;;;;;;;;;;;;2206070;67;1172;-65
2022/07/02 08:58:26;;;;;;;;;;;;;;;;;;2205226;67;1230;-65
2022/07/02 09:01:00;;;;;;;;;;;;;;;;;;2205709;67;1176;-66
2022/07/02 09:03:34;;;;;;;;;;;;;;;;;;2204914;60;1235;-64
2022/07/02 09:06:11;;;;;;;;;;;;;;;;;;2205752;67;1265;-62
2022/07/02 09:08:45;;;;;;;;;;;;;;;;;;2205533;67;1944;-64
2022/07/02 09:11:18;;;;;;;;;;;;;;;;;;2206472;59;1393;-65
2022/07/02 09:13:52;;;;;;;;;;;;;;;;;;2205624;67;1056;-65
2022/07/02 09:16:25;;;;;;;;;;;;;;;;;;2205147;67;1175;-66
2022/07/02 09:18:58;;;;;;;;;;;;;;;;;;2205476;67;1274;-65
2022/07/02 09:21:44;;;;;;;;;;;;;;;;;;2205594;67;1284;-65
2022/07/02 09:24:18;;;;;;;;;;;;;;;;;;2205538;67;1214;-66
2022/07/02 09:27:00;;;;;;;;;;;;;;;;;;2205685;59;1928;-66
2022/07/02 09:29:42;;;;;;;;;;;;;;;;;;2204350;67;1180;-65
2022/07/02 09:32:16;;;;;;;;;;;;;;;;;;2205284;67;2097;-65
2022/07/02 09:34:50;;;;;;;;;;;;;;;;;;2205711;67;1149;-65
2022/07/02 09:37:28;;;;;;;;;;;;;;;;;;2205265;67;1222;-65
2022/07/02 09:40:02;;;;;;;;;;;;;;;;;;2205684;67;1085;-65
2022/07/02 09:42:37;;;;;;;;;;;;;;;;;;2205058;59;2008;-65
2022/07/02 09:45:12;;;;;;;;;;;;;;;;;;2206043;67;1199;-65
2022/07/02 09:47:48;;;;;;;;;;;;;;;;;;2205627;67;1926;-65
2022/07/02 09:50:23;;;;;;;;;;;;;;;;;;2205758;67;1411;-66
2022/07/02 09:53:00;;;;;;;;;;;;;;;;;;2205716;67;1189;-65
2022/07/02 09:55:34;;;;;;;;;;;;;;;;;;2205576;67;1191;-66
2022/07/02 09:58:07;;;;;;;;;;;;;;;;;;2205459;59;1223;-65
2022/07/02 10:00:45;;;;;;;;;;;;;;;;;;2205128;67;1162;-66
2022/07/02 10:03:18;;;;;;;;;;;;;;;;;;2205633;67;1112;-65
2022/07/02 10:05:52;;;;;;;;;;;;;;;;;;2205146;67;1111;-65
2022/07/02 10:08:28;;;;;;;;;;;;;;;;;;2205850;67;2059;-66
2022/07/02 10:11:02;;;;;;;;;;;;;;;;;;2206930;59;1388;-66
2022/07/02 10:13:36;;;;;;;;;;;;;;;;;;2206073;67;1066;-65
2022/07/02 10:16:13;;;;;;;;;;;;;;;;;;2206434;67;1189;-66
2022/07/02 10:18:47;;;;;;;;;;;;;;;;;;2205956;59;1817;-63
2022/07/02 10:21:20;;;;;;;;;;;;;;;;;;2205798;67;1188;-64
2022/07/02 10:23:56;;;;;;;;;;;;;;;;;;2205703;67;1080;-66
2022/07/02 10:26:30;;;;;;;;;;;;;;;;;;2205710;59;1293;-65
2022/07/02 10:29:04;;;;;;;;;;;;;;;;;;2204983;67;1997;-66
2022/07/02 10:31:40;;;;;;;;;;;;;;;;;;2205789;59;2019;-65
2022/07/02 10:34:24;;;;;;;;;;;;;;;;;;2206459;67;1099;-66
2022/07/02 10:36:58;;;;;;;;;;;;;;;;;;2205829;67;1204;-66
2022/07/02 10:39:42;;;;;;;;;;;;;;;;;;2205132;67;1037;-66
2022/07/02 10:42:15;;;;;;;;;;;;;;;;;;2205706;67;2259;-65
2022/07/02 10:44:48;;;;;;;;;;;;;;;;;;2205542;67;1216;-65
2022/07/02 10:47:22;;;;;;;;;;;;;;;;;;2205641;67;1937;-65
2022/07/02 10:50:01;;;;;;;;;;;;;;;;;;2205510;67;1224;-65
2022/07/02 10:52:42;;;;;;;;;;;;;;;;;;2205893;67;1216;-65
2022/07/02 10:55:25;;;;;;;;;;;;;;;;;;2205908;67;1115;-65
2022/07/02 10:58:02;;;;;;;;;;;;;;;;;;2205810;59;1217;-65
2022/07/02 11:00:37;;;;;;;;;;;;;;;;;;2205420;67;1109;-65
2022/07/02 11:03:14;;;;;;;;;;;;;;;;;;2205820;67;1197;-63
2022/07/02 11:05:57;;;;;;;;;;;;;;;;;;2205393;67;1150;-64
2022/07/02 11:08:50;;;;;;;;;;;;;;;;;;2204863;67;1954;-64
2022/07/02 11:11:32;;;;;;;;;;;;;;;;;;2205443;59;1411;-65
2022/07/02 11:14:06;;;;;;;;;;;;;;;;;;2205267;67;1206;-66
2022/07/02 11:16:41;;;;;;;;;;;;;;;;;;2205078;67;1215;-64
2022/07/02 11:19:16;;;;;;;;;;;;;;;;;;2205149;67;1187;-65
2022/07/02 11:21:50;;;;;;;;;;;;;;;;;;2204967;67;1184;-65
2022/07/02 11:24:24;;;;;;;;;;;;;;;;;;2204626;59;1138;-66
2022/07/02 11:27:01;;;;;;;;;;;;;;;;;;2205691;59;1315;-63
2022/07/02 11:29:34;;;;;;;;;;;;;;;;;;2203920;67;1943;-64
2022/07/02 11:32:07;;;;;;;;;;;;;;;;;;2205391;59;2100;-63
2022/07/02 11:34:40;;;;;;;;;;;;;;;;;;2204825;67;1192;-65
2022/07/02 11:37:21;;;;;;;;;;;;;;;;;;2205888;67;1179;-64
2022/07/02 11:39:54;;;;;;;;;;;;;;;;;;2205231;67;1105;-65
2022/07/02 11:42:39;;;;;;;;;;;;;;;;;;2205359;67;2083;-64
2022/07/02 11:45:12;;;;;;;;;;;;;;;;;;2205063;67;1180;-65
2022/07/02 11:47:46;;;;;;;;;;;;;;;;;;2205264;67;1971;-66
2022/07/02 11:50:28;;;;;;;;;;;;;;;;;;2204847;67;1231;-64
2022/07/02 11:53:01;;;;;;;;;;;;;;;;;;2205059;67;1178;-65
2022/07/02 11:55:35;;;;;;;;;;;;;;;;;;2204988;67;1026;-64
2022/07/02 11:58:11;;;;;;;;;;;;;;;;;;2204999;59;1332;-64
2022/07/02 12:00:44;;;;;;;;;;;;;;;;;;2205004;67;1156;-66
2022/07/02 12:03:17;;;;;;;;;;;;;;;;;;2205676;67;1134;-65
2022/07/02 12:05:53;;;;;;;;;;;;;;;;;;2205530;59;1249;-65
2022/07/02 12:08:27;;;;;;;;;;;;;;;;;;2205682;67;1942;-65
2022/07/02 12:11:00;;;;;;;;;;;;;;;;;;2205944;59;1383;-65
2022/07/02 12:13:36;;;;;;;;;;;;;;;;;;2205591;67;1252;-65
2022/07/02 12:16:11;;;;;;;;;;;;;;;;;;2206005;67;1245;-64
2022/07/02 12:18:45;;;;;;;;;;;;;;;;;;2205594;67;1219;-65
2022/07/02 12:21:19;;;;;;;;;;;;;;;;;;2205134;67;1115;-65
2022/07/02 12:23:53;;;;;;;;;;;;;;;;;;2205681;67;1172;-65
2022/07/02 12:26:27;;;;;;;;;;;;;;;;;;2205595;67;1092;-66
2022/07/02 12:31:54;;;;;;;;;;;;;;;;;;2205724;59;2188;-63
2022/07/02 12:34:37;;;;;;;;;;;;;;;;;;2205365;67;1073;-65
2022/07/02 12:37:21;;;;;;;;;;;;;;;;;;2205432;67;1264;-65
2022/07/02 12:40:01;;;;;;;;;;;;;;;;;;2205559;67;1211;-65
2022/07/02 12:42:36;;;;;;;;;;;;;;;;;;2205656;59;2230;-66
2022/07/02 12:45:12;;;;;;;;;;;;;;;;;;2206012;67;1261;-65
2022/07/02 12:47:45;;;;;;;;;;;;;;;;;;2205674;67;1993;-65
2022/07/02 12:50:18;;;;;;;;;;;;;;;;;;2205636;67;1209;-64
2022/07/02 12:52:52;;;;;;;;;;;;;;;;;;2206440;67;1230;-63
2022/07/02 12:55:27;;;;;;;;;;;;;;;;;;2205377;67;1072;-65
2022/07/02 12:58:01;;;;;;;;;;;;;;;;;;2205861;59;1277;-65
2022/07/02 13:00:38;;;;;;;;;;;;;;;;;;2205038;67;1191;-64
2022/07/02 13:03:11;;;;;;;;;;;;;;;;;;2205067;67;1133;-63
2022/07/02 13:05:45;;;;;;;;;;;;;;;;;;2205808;67;1119;-65
2022/07/02 13:08:20;;;;;;;;;;;;;;;;;;2205416;59;1996;-65
2022/07/02 13:10:55;;;;;;;;;;;;;;;;;;2205358;59;1793;-65
2022/07/02 13:13:29;;;;;;;;;;;;;;;;;;2205286;59;1174;-64
2022/07/02 13:16:05;;;;;;;;;;;;;;;;;;2206186;67;1310;-65
2022/07/02 13:18:38;;;;;;;;;;;;;;;;;;2205779;67;1219;-65
2022/07/02 13:21:11;;;;;;;;;;;;;;;;;;2205266;67;1109;-65
2022/07/02 13:23:44;;;;;;;;;;;;;;;;;;2204745;59;1709;-65
2022/07/02 13:26:17;;;;;;;;;;;;;;;;;;2205288;59;1189;-65
2022/07/02 13:28:51;;;;;;;;;;;;;;;;;;2204521;67;2010;-65
2022/07/02 13:31:27;;;;;;;;;;;;;;;;;;2204577;59;2026;-65
2022/07/02 13:34:00;;;;;;;;;;;;;;;;;;2205535;67;1259;-63
2022/07/02 13:36:33;;;;;;;;;;;;;;;;;;2205636;67;1103;-66
2022/07/02 13:39:07;;;;;;;;;;;;;;;;;;2204970;67;1239;-65
2022/07/02 13:41:40;;;;;;;;;;;;;;;;;;2205236;59;2054;-64
2022/07/02 13:44:13;;;;;;;;;;;;;;;;;;2205775;67;1191;-64
2022/07/02 13:46:49;;;;;;;;;;;;;;;;;;2206242;67;1013;-66
2022/07/02 13:49:22;;;;;;;;;;;;;;;;;;2205940;67;1936;-64
2022/07/02 13:51:55;;;;;;;;;;;;;;;;;;2205828;67;1290;-64
2022/07/02 13:54:29;;;;;;;;;;;;;;;;;;2205801;67;1201;-64
2022/07/02 13:57:02;;;;;;;;;;;;;;;;;;2205580;59;1248;-66
2022/07/02 13:59:35;;;;;;;;;;;;;;;;;;2205795;67;1140;-66
2022/07/02 14:02:12;;;;;;;;;;;;;;;;;;2205836;67;1177;-66
2022/07/02 14:04:45;;;;;;;;;;;;;;;;;;2205221;67;1619;-66
2022/07/02 14:07:18;;;;;;;;;;;;;;;;;;2205808;67;1351;-65
2022/07/02 14:09:51;;;;;;;;;;;;;;;;;;2205894;67;1983;-66
2022/07/02 14:12:25;;;;;;;;;;;;;;;;;;2205868;59;1398;-65
2022/07/02 14:14:58;;;;;;;;;;;;;;;;;;2205610;67;1239;-64
2022/07/02 14:17:34;;;;;;;;;;;;;;;;;;2205489;67;1254;-66
2022/07/02 14:20:08;;;;;;;;;;;;;;;;;;2205126;67;1246;-64
2022/07/02 14:22:41;;;;;;;;;;;;;;;;;;2205145;67;1166;-66
2022/07/02 14:25:14;;;;;;;;;;;;;;;;;;2204628;59;1786;-65
2022/07/02 14:27:47;;;;;;;;;;;;;;;;;;2204876;67;1208;-65
2022/07/02 14:30:21;;;;;;;;;;;;;;;;;;2205112;59;2002;-65
2022/07/02 14:32:57;;;;;;;;;;;;;;;;;;2205236;67;1196;-64
2022/07/02 14:35:30;;;;;;;;;;;;;;;;;;2205582;67;1229;-64
2022/07/02 14:38:03;;;;;;;;;;;;;;;;;;2205802;67;1121;-63
2022/07/02 14:40:36;;;;;;;;;;;;;;;;;;2204948;59;2174;-65
2022/07/02 14:43:09;;;;;;;;;;;;;;;;;;2205493;67;1249;-65
2022/07/02 14:45:43;;;;;;;;;;;;;;;;;;2205086;67;1156;-64
2022/07/02 14:48:19;;;;;;;;;;;;;;;;;;2205691;60;1220;-64
2022/07/02 14:50:52;;;;;;;;;;;;;;;;;;2205230;59;1983;-64
2022/07/02 14:53:25;;;;;;;;;;;;;;;;;;2201729;67;1549;-65
2022/07/02 14:55:58;;;;;;;;;;;;;;;;;;2205997;67;1142;-65
2022/07/02 14:58:31;;;;;;;;;;;;;;;;;;2204820;59;1243;-64
2022/07/02 15:01:04;;;;;;;;;;;;;;;;;;2205325;67;1219;-65
2022/07/02 15:03:41;;;;;;;;;;;;;;;;;;2205058;67;1360;-65
2022/07/02 15:06:15;;;;;;;;;;;;;;;;;;2205237;67;1219;-65
2022/07/02 15:08:48;;;;;;;;;;;;;;;;;;2205552;67;1987;-65
2022/07/02 15:11:21;;;;;;;;;;;;;;;;;;2205745;59;1372;-64
2022/07/02 15:16:43;;;;;;;;;;;;;;;;;;2204753;67;1141;-65
2022/07/02 15:19:19;;;;;;;;;;;;;;;;;;2205353;59;1638;-66
2022/07/02 15:21:53;;;;;;;;;;;;;;;;;;2205406;67;1095;-64
2022/07/02 15:24:29;;;;;;;;;;;;;;;;;;2205069;67;1285;-65
2022/07/02 15:27:07;;;;;;;;;;;;;;;;;;2204943;59;1286;-64
2022/07/02 15:29:41;;;;;;;;;;;;;;;;;;2204459;60;1937;-65
2022/07/02 15:32:15;;;;;;;;;;;;;;;;;;2202343;59;2078;-64
2022/07/02 15:34:52;;;;;;;;;;;;;;;;;;2204816;67;1183;-64
2022/07/02 15:37:25;;;;;;;;;;;;;;;;;;2206157;67;1271;-64
2022/07/02 15:39:58;;;;;;;;;;;;;;;;;;2206410;67;1244;-65
2022/07/02 15:42:31;;;;;;;;;;;;;;;;;;2206065;67;1975;-66
2022/07/02 15:45:05;;;;;;;;;;;;;;;;;;2206210;67;1200;-66
2022/07/02 15:47:40;;;;;;;;;;;;;;;;;;2207132;67;1178;-65
2022/07/02 15:50:16;;;;;;;;;;;;;;;;;;2206419;59;1943;-66
2022/07/02 15:52:57;;;;;;;;;;;;;;;;;;2205439;67;1128;-66
2022/07/02 15:55:34;;;;;;;;;;;;;;;;;;2206725;67;1270;-65
2022/07/02 15:58:15;;;;;;;;;;;;;;;;;;2205678;67;1203;-65
2022/07/02 16:00:49;;;;;;;;;;;;;;;;;;2206285;67;1124;-66
2022/07/02 16:03:27;;;;;;;;;;;;;;;;;;2205939;67;1156;-65
2022/07/02 16:06:03;;;;;;;;;;;;;;;;;;2206187;67;1182;-65
2022/07/02 16:08:37;;;;;;;;;;;;;;;;;;2206352;67;1183;-65
2022/07/02 16:11:10;;;;;;;;;;;;;;;;;;2206013;59;1990;-65
2022/07/02 16:13:43;;;;;;;;;;;;;;;;;;2206098;67;1180;-65
2022/07/02 16:16:17;;;;;;;;;;;;;;;;;;2206303;67;1261;-66
2022/07/02 16:18:51;;;;;;;;;;;;;;;;;;2206185;67;1238;-66
2022/07/02 16:21:28;;;;;;;;;;;;;;;;;;2206653;67;1292;-65
2022/07/02 16:24:01;;;;;;;;;;;;;;;;;;2206230;67;1215;-64
2022/07/02 16:26:34;;;;;;;;;;;;;;;;;;2205684;67;1608;-65
2022/07/02 16:29:08;;;;;;;;;;;;;;;;;;2205566;67;1973;-65
2022/07/02 16:31:45;;;;;;;;;;;;;;;;;;2205704;59;2050;-65
2022/07/02 16:34:21;;;;;;;;;;;;;;;;;;2205622;67;1108;-66
2022/07/02 16:36:58;;;;;;;;;;;;;;;;;;2206122;67;1196;-66
2022/07/02 16:39:38;;;;;;;;;;;;;;;;;;2205419;67;1111;-65
2022/07/02 16:42:11;;;;;;;;;;;;;;;;;;2206521;59;1980;-65
2022/07/02 16:44:46;;;;;;;;;;;;;;;;;;2206155;67;1102;-65
2022/07/02 16:47:20;;;;;;;;;;;;;;;;;;2206410;67;1266;-64
2022/07/02 16:49:54;;;;;;;;;;;;;;;;;;2205366;67;1984;-65
2022/07/02 16:52:32;;;;;;;;;;;;;;;;;;2205861;67;1341;-66
2022/07/02 16:55:06;;;;;;;;;;;;;;;;;;2205628;67;1252;-64
2022/07/02 16:57:40;;;;;;;;;;;;;;;;;;2205927;59;1232;-65
2022/07/02 17:00:14;;;;;;;;;;;;;;;;;;2205979;67;1173;-64
2022/07/02 17:02:49;;;;;;;;;;;;;;;;;;2205413;67;1220;-64
2022/07/02 17:05:23;;;;;;;;;;;;;;;;;;2205743;67;1159;-65
2022/07/02 17:07:59;;;;;;;;;;;;;;;;;;2205618;67;1352;-65
2022/07/02 17:13:20;;;;;;;;;;;;;;;;;;2205688;59;1621;-64
2022/07/02 17:15:54;;;;;;;;;;;;;;;;;;2205500;67;1206;-65
2022/07/02 17:18:27;;;;;;;;;;;;;;;;;;2206420;67;1265;-65
2022/07/02 17:21:00;;;;;;;;;;;;;;;;;;2205720;67;1217;-66
2022/07/02 17:23:36;;;;;;;;;;;;;;;;;;2206145;67;1280;-63
2022/07/02 17:26:09;;;;;;;;;;;;;;;;;;2205335;59;1276;-66
2022/07/02 17:28:43;;;;;;;;;;;;;;;;;;2204669;67;1308;-66
2022/07/02 17:31:16;;;;;;;;;;;;;;;;;;2204960;59;1955;-66
2022/07/02 17:33:50;;;;;;;;;;;;;;;;;;2205198;67;1297;-64
2022/07/02 17:36:23;;;;;;;;;;;;;;;;;;2205271;67;1234;-66
2022/07/02 17:38:59;;;;;;;;;;;;;;;;;;2205304;67;1268;-65
2022/07/02 17:41:32;;;;;;;;;;;;;;;;;;2205120;59;2054;-65
2022/07/02 17:44:06;;;;;;;;;;;;;;;;;;2205857;59;1212;-63
2022/07/02 17:46:40;;;;;;;;;;;;;;;;;;2204517;67;1127;-65
2022/07/02 17:49:13;;;;;;;;;;;;;;;;;;2205753;67;1210;-65
2022/07/02 17:51:46;;;;;;;;;;;;;;;;;;2205060;67;1978;-66
2022/07/02 17:54:22;;;;;;;;;;;;;;;;;;2206060;67;1329;-65
2022/07/02 17:56:55;;;;;;;;;;;;;;;;;;2205878;59;1310;-65
2022/07/02 17:59:28;;;;;;;;;;;;;;;;;;2204709;59;1834;-65
2022/07/02 18:02:03;;;;;;;;;;;;;;;;;;2205552;67;1144;-65
2022/07/02 18:04:36;;;;;;;;;;;;;;;;;;2205141;59;1157;-65
2022/07/02 18:07:09;;;;;;;;;;;;;;;;;;2205428;67;1667;-64
2022/07/02 18:09:45;;;;;;;;;;;;;;;;;;2205322;67;1936;-65
2022/07/02 18:12:18;;;;;;;;;;;;;;;;;;2206041;59;1355;-65
2022/07/02 18:14:51;;;;;;;;;;;;;;;;;;2205309;67;1211;-65
2022/07/02 18:17:24;;;;;;;;;;;;;;;;;;2205660;67;1249;-65